Strona główna
METAR-TAF:

METAR-TAF

Lotnisko :

Port lotniczy Curaçao

Curaçao, Antyle Holenderskie

Szerokość geograficzna: 12-12N, Długość geograficzna: 068-58W, wysokość: 9 m

Aktualna obserwacja pogody

Raport powstał 49 minut temu, godzina 13:00 UTC
Wiatr 15 kt od wschód
Temperatura 31°C
Wilgotność 71%
Ciśnienie 1015 hPa
Widzialność 10 km lub więcej
Rozproszone chmury na wysokości 2300 ft

METAR: TNCC 291300Z 10015KT 9999 SCT023 31/25 Q1015 NOSIG

czas: 09:49 (13:49 UTC)

Prognoza

Raport powstał 2 godziny i 34 minut temu, godzina 11:15 UTC
Prognoza ważna od 29 godzina 12 UTC do 30 godzina 12 UTC
Wiatr 15 kt od wschód
Widzialność 10 km lub więcej
Rozproszone chmury na wysokości 2000 ft

TAF: TNCC 291115Z 2912/3012 09015KT 9999 SCT020

Obserwacja i prognoza pogody dla ponad 4000 lotnisk (raport METAR i TAF).

Dostępne stacje oznaczono żółtymi i czerwonymi punktami na mapie.

Najedź kursorem aby zobaczyć nazwę stacji.

Kliknij aby zobaczyć obserwacje i prognozy pogody.

Aby zmienić mapę: kliknij na zielony przycisk z czarnym krzyżykiem, aby powiększyć; na zielony przycisk z myślnikiem, aby pomniejszyć; na zielone strzałki, aby przejść do map sąsiednich.


METAR-TAF: